Time;durP1;ratioP1;P1;durP2;ratioP2;P2;SDS_P1;SDS_P2;PMS_P1;PMS_P2;Temp;Humidity;BMP_temperature;BMP_pressure;BME280_temperature;BME280_humidity;BME280_pressure;Samples;Min_cycle;Max_cycle;Signal;HPM_P1;HPM_P2
2022/12/09 00:01:15;;;;;;;23.30;15.30;;;;;;;;;;5014106;28;20085;-82
2022/12/09 00:03:42;;;;;;;23.10;14.15;;;;;;;;;;4996214;28;20045;-81
2022/12/09 00:06:08;;;;;;;21.90;13.00;;;;;;;;;;5014056;28;20022;-80
2022/12/09 00:08:34;;;;;;;18.58;12.63;;;;;;;;;;5013991;28;20018;-82
2022/12/09 00:11:00;;;;;;;22.52;13.88;;;;;;;;;;5013952;28;20026;-82
2022/12/09 00:13:26;;;;;;;21.08;14.77;;;;;;;;;;4996316;28;20523;-82
2022/12/09 00:15:52;;;;;;;19.55;12.85;;;;;;;;;;5013900;28;20033;-81
2022/12/09 00:18:18;;;;;;;21.73;14.10;;;;;;;;;;5013819;28;20026;-81
2022/12/09 00:20:45;;;;;;;20.55;14.27;;;;;;;;;;5013862;28;20104;-82
2022/12/09 00:23:11;;;;;;;23.00;14.63;;;;;;;;;;5013777;28;20030;-82
2022/12/09 00:25:37;;;;;;;19.95;13.25;;;;;;;;;;5013647;28;20109;-82
2022/12/09 00:28:03;;;;;;;23.45;15.13;;;;;;;;;;5013695;28;20036;-83
2022/12/09 00:30:29;;;;;;;48.22;25.23;;;;;;;;;;5013606;28;20077;-81
2022/12/09 00:32:55;;;;;;;45.92;23.58;;;;;;;;;;5013627;28;20026;-83
2022/12/09 00:35:21;;;;;;;32.65;22.27;;;;;;;;;;5013590;28;20029;-81
2022/12/09 00:37:47;;;;;;;31.50;21.33;;;;;;;;;;5013677;28;20418;-82
2022/12/09 00:40:13;;;;;;;25.73;17.40;;;;;;;;;;5013411;28;20112;-82
2022/12/09 00:42:39;;;;;;;29.05;18.25;;;;;;;;;;5013493;28;20026;-83
2022/12/09 00:45:06;;;;;;;26.67;16.63;;;;;;;;;;5013435;28;20026;-81
2022/12/09 00:47:33;;;;;;;28.20;17.33;;;;;;;;;;5013448;28;20030;-82
2022/12/09 00:49:59;;;;;;;28.67;17.25;;;;;;;;;;4995734;28;20081;-82
2022/12/09 00:52:25;;;;;;;24.90;17.02;;;;;;;;;;5013545;28;20014;-83
2022/12/09 00:54:51;;;;;;;27.27;17.15;;;;;;;;;;5013544;28;20034;-81
2022/12/09 00:57:17;;;;;;;29.48;19.63;;;;;;;;;;5013409;28;20018;-80
2022/12/09 00:59:43;;;;;;;24.42;16.45;;;;;;;;;;5013380;28;20101;-80
2022/12/09 01:02:09;;;;;;;28.13;17.05;;;;;;;;;;5013374;28;20026;-80
2022/12/09 01:04:35;;;;;;;30.02;16.85;;;;;;;;;;5013139;28;20121;-81
2022/12/09 01:07:01;;;;;;;25.45;17.67;;;;;;;;;;5013387;28;20026;-81
2022/12/09 01:09:27;;;;;;;25.73;17.00;;;;;;;;;;5013372;28;20030;-83
2022/12/09 01:11:53;;;;;;;28.08;15.73;;;;;;;;;;5013344;28;20026;-80
2022/12/09 01:14:19;;;;;;;22.38;16.17;;;;;;;;;;4995634;28;20026;-81
2022/12/09 01:16:46;;;;;;;20.75;13.57;;;;;;;;;;5013365;28;20022;-80
2022/12/09 01:19:12;;;;;;;22.92;14.93;;;;;;;;;;5013267;28;20057;-80
2022/12/09 01:21:38;;;;;;;23.25;14.45;;;;;;;;;;5013261;28;20357;-83
2022/12/09 01:24:09;;;;;;;22.70;16.00;;;;;;;;;;5013130;28;20037;-83
2022/12/09 01:26:35;;;;;;;24.35;14.65;;;;;;;;;;5013198;28;20033;-83
2022/12/09 01:29:01;;;;;;;24.75;14.98;;;;;;;;;;5013081;28;20029;-81
2022/12/09 01:31:28;;;;;;;24.70;15.00;;;;;;;;;;5013240;28;20026;-83
2022/12/09 01:33:55;;;;;;;20.92;14.80;;;;;;;;;;5013247;28;20141;-80
2022/12/09 01:36:22;;;;;;;23.02;14.05;;;;;;;;;;5013248;28;20141;-82
2022/12/09 01:38:49;;;;;;;21.10;14.35;;;;;;;;;;5013130;28;20415;-81
2022/12/09 01:41:16;;;;;;;21.10;13.73;;;;;;;;;;5012920;28;20080;-80
2022/12/09 01:43:42;;;;;;;20.83;14.68;;;;;;;;;;4995525;28;20037;-82
2022/12/09 01:46:09;;;;;;;21.27;14.55;;;;;;;;;;5013057;28;20101;-81
2022/12/09 01:48:39;;;;;;;23.75;15.48;;;;;;;;;;5012829;28;20461;-82
2022/12/09 01:51:12;;;;;;;23.50;17.85;;;;;;;;;;5012993;28;20025;-81
2022/12/09 01:53:41;;;;;;;26.63;17.85;;;;;;;;;;4998721;28;20388;-81
2022/12/09 01:56:14;;;;;;;27.00;17.40;;;;;;;;;;4998873;28;20026;-82
2022/12/09 01:58:40;;;;;;;28.17;17.27;;;;;;;;;;5016412;28;20026;-83
2022/12/09 02:01:07;;;;;;;30.00;19.65;;;;;;;;;;5016321;28;20026;-83
2022/12/09 02:03:33;;;;;;;27.30;17.65;;;;;;;;;;5016158;28;20057;-81
2022/12/09 02:05:59;;;;;;;29.30;19.13;;;;;;;;;;5016048;28;20466;-82
2022/12/09 02:08:25;;;;;;;22.25;16.60;;;;;;;;;;4998475;28;20449;-82
2022/12/09 02:11:10;;;;;;;27.30;20.73;;;;;;;;;;5016007;28;20026;-81
2022/12/09 02:13:43;;;;;;;23.40;14.80;;;;;;;;;;5016275;28;20057;-82
2022/12/09 02:16:12;;;;;;;26.10;14.90;;;;;;;;;;5015883;28;20021;-81
2022/12/09 02:18:42;;;;;;;36.75;21.67;;;;;;;;;;5015955;28;20057;-82
2022/12/09 02:21:11;;;;;;;27.38;18.42;;;;;;;;;;5015980;28;20022;-82
2022/12/09 02:23:50;;;;;;;25.58;16.50;;;;;;;;;;5016007;28;20026;-81
2022/12/09 02:26:19;;;;;;;23.77;14.68;;;;;;;;;;5015865;28;20381;-82
2022/12/09 02:28:45;;;;;;;27.70;16.63;;;;;;;;;;5015864;28;20018;-82
2022/12/09 02:31:30;;;;;;;20.40;13.65;;;;;;;;;;5015724;28;20028;-81
2022/12/09 02:33:56;;;;;;;;;;;;;;;;;;4998439;28;20057;-82
2022/12/09 02:36:25;;;;;;;24.95;14.57;;;;;;;;;;5015656;28;19905;-81
2022/12/09 02:38:52;;;;;;;21.23;14.48;;;;;;;;;;4997931;28;20515;-82
2022/12/09 02:41:23;;;;;;;20.48;14.30;;;;;;;;;;5015571;28;20105;-82
2022/12/09 02:43:55;;;;;;;26.98;15.77;;;;;;;;;;5015525;28;20476;-80
2022/12/09 02:46:21;;;;;;;21.63;13.38;;;;;;;;;;4998007;28;20025;-81
2022/12/09 02:48:51;;;;;;;19.77;12.43;;;;;;;;;;5015402;28;20033;-83
2022/12/09 02:51:20;;;;;;;19.20;13.60;;;;;;;;;;5015530;28;20101;-81
2022/12/09 02:53:47;;;;;;;20.13;13.75;;;;;;;;;;5015404;28;20030;-82
2022/12/09 02:56:14;;;;;;;23.52;15.73;;;;;;;;;;5015249;28;20100;-81
2022/12/09 02:58:40;;;;;;;24.95;15.50;;;;;;;;;;4997699;28;20026;-83
2022/12/09 03:01:18;;;;;;;22.42;15.82;;;;;;;;;;5015428;28;20413;-81
2022/12/09 03:03:44;;;;;;;24.15;15.93;;;;;;;;;;4996322;28;20148;-81
2022/12/09 03:06:13;;;;;;;24.15;15.05;;;;;;;;;;5015113;28;20049;-82
2022/12/09 03:08:39;;;;;;;23.52;15.02;;;;;;;;;;5014966;28;20021;-81
2022/12/09 03:11:09;;;;;;;25.15;17.42;;;;;;;;;;5015014;28;20030;-81
2022/12/09 03:13:41;;;;;;;27.63;17.60;;;;;;;;;;5015120;28;20018;-81
2022/12/09 03:16:14;;;;;;;27.45;18.50;;;;;;;;;;5015107;28;20504;-81
2022/12/09 03:18:43;;;;;;;26.13;16.30;;;;;;;;;;4997336;28;20069;-81
2022/12/09 03:21:09;;;;;;;24.15;15.27;;;;;;;;;;5014673;28;20021;-83
2022/12/09 03:23:36;;;;;;;22.23;15.15;;;;;;;;;;5014779;28;20022;-82
2022/12/09 03:26:03;;;;;;;18.70;13.02;;;;;;;;;;5014912;28;20014;-83
2022/12/09 03:28:36;;;;;;;23.92;14.02;;;;;;;;;;5014813;28;20029;-82
2022/12/09 03:31:04;;;;;;;20.23;12.98;;;;;;;;;;5014691;28;20041;-81
2022/12/09 03:33:31;;;;;;;23.05;12.93;;;;;;;;;;4997051;28;20022;-81
2022/12/09 03:35:58;;;;;;;18.90;12.50;;;;;;;;;;5014587;28;20480;-83
2022/12/09 03:38:26;;;;;;;18.35;12.05;;;;;;;;;;5014483;28;20030;-82
2022/12/09 03:40:58;;;;;;;20.80;12.80;;;;;;;;;;5014536;28;20034;-82
2022/12/09 03:43:27;;;;;;;23.13;14.77;;;;;;;;;;5014446;28;20045;-83
2022/12/09 03:45:54;;;;;;;20.35;13.07;;;;;;;;;;5014458;28;20026;-82
2022/12/09 03:48:20;;;;;;;19.05;12.63;;;;;;;;;;5014358;28;20060;-81
2022/12/09 03:50:49;;;;;;;21.63;14.18;;;;;;;;;;5014275;28;20025;-83
2022/12/09 03:53:33;;;;;;;23.23;14.18;;;;;;;;;;5014363;28;20060;-81
2022/12/09 03:56:18;;;;;;;24.02;15.55;;;;;;;;;;5014276;28;20022;-81
2022/12/09 03:58:45;;;;;;;24.67;15.07;;;;;;;;;;5014178;28;20105;-83
2022/12/09 04:01:11;;;;;;;21.90;14.85;;;;;;;;;;4996474;28;20037;-83
2022/12/09 04:03:37;;;;;;;19.45;13.23;;;;;;;;;;5013986;28;20060;-81
2022/12/09 04:06:04;;;;;;;23.55;14.27;;;;;;;;;;4996522;28;20072;-81
2022/12/09 04:08:30;;;;;;;25.17;16.13;;;;;;;;;;5014004;28;20026;-81
2022/12/09 04:10:56;;;;;;;26.60;15.98;;;;;;;;;;5013702;28;20563;-83
2022/12/09 04:13:22;;;;;;;25.17;15.57;;;;;;;;;;5014005;28;20065;-83
2022/12/09 04:15:48;;;;;;;32.17;17.77;;;;;;;;;;5013288;28;20021;-81
2022/12/09 04:18:14;;;;;;;36.42;20.38;;;;;;;;;;5013956;28;20026;-82
2022/12/09 04:20:40;;;;;;;29.85;18.08;;;;;;;;;;5013937;28;20109;-82
2022/12/09 04:23:06;;;;;;;27.17;14.85;;;;;;;;;;5013888;28;20030;-81
2022/12/09 04:25:32;;;;;;;27.00;16.77;;;;;;;;;;4996158;28;20026;-81
2022/12/09 04:27:58;;;;;;;25.20;16.27;;;;;;;;;;5013717;28;20026;-81
2022/12/09 04:30:24;;;;;;;25.30;15.60;;;;;;;;;;5013765;28;20030;-82
2022/12/09 04:32:50;;;;;;;30.10;17.88;;;;;;;;;;5013667;28;20021;-81
2022/12/09 04:35:17;;;;;;;29.80;18.58;;;;;;;;;;5013699;28;20388;-81
2022/12/09 04:37:43;;;;;;;28.58;18.15;;;;;;;;;;5013655;28;20018;-83
2022/12/09 04:40:09;;;;;;;25.45;17.65;;;;;;;;;;4996037;28;20029;-82
2022/12/09 04:42:35;;;;;;;29.80;18.40;;;;;;;;;;5013344;28;20033;-82
2022/12/09 04:45:09;;;;;;;30.77;19.98;;;;;;;;;;5013790;28;20026;-81
2022/12/09 04:47:39;;;;;;;76.93;44.55;;;;;;;;;;4995684;28;20057;-81
2022/12/09 04:50:05;;;;;;;35.97;24.17;;;;;;;;;;5013354;28;20030;-81
2022/12/09 04:52:31;;;;;;;28.73;20.13;;;;;;;;;;5013395;28;20032;-83
2022/12/09 04:54:57;;;;;;;25.27;15.88;;;;;;;;;;5013393;28;20033;-81
2022/12/09 04:57:23;;;;;;;20.42;14.15;;;;;;;;;;4995523;28;20022;-82
2022/12/09 04:59:49;;;;;;;30.63;19.90;;;;;;;;;;5027206;28;20366;-80
2022/12/09 05:02:15;;;;;;;45.78;28.65;;;;;;;;;;4995948;28;20028;-82
2022/12/09 05:04:42;;;;;;;38.03;24.88;;;;;;;;;;4998521;28;20089;-82
2022/12/09 05:07:08;;;;;;;28.58;18.75;;;;;;;;;;4992528;28;20026;-84
2022/12/09 05:09:34;;;;;;;29.65;18.45;;;;;;;;;;4992267;28;20034;-81
2022/12/09 05:12:00;;;;;;;30.15;18.20;;;;;;;;;;4976981;28;20026;-81
2022/12/09 05:14:26;;;;;;;30.05;20.63;;;;;;;;;;5004932;28;20033;-81
2022/12/09 05:16:52;;;;;;;33.38;20.83;;;;;;;;;;5001408;28;20470;-81
2022/12/09 05:19:18;;;;;;;49.08;33.05;;;;;;;;;;4993398;28;20038;-83
2022/12/09 05:21:45;;;;;;;54.05;40.13;;;;;;;;;;4975792;28;20061;-81
2022/12/09 05:24:13;;;;;;;56.63;42.28;;;;;;;;;;4993389;28;20027;-83
2022/12/09 05:26:39;;;;;;;43.45;32.40;;;;;;;;;;4976908;28;20053;-83
2022/12/09 05:29:06;;;;;;;36.08;25.58;;;;;;;;;;4997368;28;20034;-83
2022/12/09 05:31:32;;;;;;;36.58;25.48;;;;;;;;;;5009399;28;20029;-82
2022/12/09 05:33:58;;;;;;;35.22;24.63;;;;;;;;;;5009768;28;20022;-83
2022/12/09 05:36:26;;;;;;;53.47;37.22;;;;;;;;;;4997088;28;20022;-81
2022/12/09 05:38:52;;;;;;;63.42;37.38;;;;;;;;;;4997100;28;20027;-84
2022/12/09 05:41:18;;;;;;;48.15;30.58;;;;;;;;;;4996245;28;20390;-83
2022/12/09 05:43:45;;;;;;;54.88;33.60;;;;;;;;;;4996848;28;20022;-81
2022/12/09 05:46:12;;;;;;;64.18;39.55;;;;;;;;;;4979427;28;20023;-83
2022/12/09 05:48:38;;;;;;;84.25;51.80;;;;;;;;;;4979358;28;20479;-81
2022/12/09 05:51:09;;;;;;;66.13;45.10;;;;;;;;;;4996691;28;20041;-85
2022/12/09 05:53:35;;;;;;;55.53;37.33;;;;;;;;;;4996660;28;20026;-81
2022/12/09 05:56:02;;;;;;;36.92;25.73;;;;;;;;;;4996850;28;20027;-80
2022/12/09 05:58:28;;;;;;;37.15;23.25;;;;;;;;;;4979205;28;20121;-83
2022/12/09 06:00:57;;;;;;;43.55;28.25;;;;;;;;;;4979284;28;20486;-83
2022/12/09 06:03:23;;;;;;;49.55;32.17;;;;;;;;;;5004238;28;20466;-83
2022/12/09 06:05:56;;;;;;;61.00;39.65;;;;;;;;;;5015967;28;20052;-83
2022/12/09 06:08:30;;;;;;;70.55;43.00;;;;;;;;;;4998094;28;20121;-82
2022/12/09 06:10:56;;;;;;;58.58;36.80;;;;;;;;;;5002724;28;20025;-83
2022/12/09 06:13:22;;;;;;;59.33;38.00;;;;;;;;;;5024442;28;20477;-84
2022/12/09 06:15:48;;;;;;;61.45;36.83;;;;;;;;;;5015123;28;20021;-82
2022/12/09 06:18:14;;;;;;;64.30;40.40;;;;;;;;;;5032397;28;20032;-83
2022/12/09 06:20:40;;;;;;;96.53;45.70;;;;;;;;;;5035407;28;20025;-81
2022/12/09 06:23:07;;;;;;;72.78;45.17;;;;;;;;;;5035040;28;20021;-83
2022/12/09 06:25:33;;;;;;;70.03;44.60;;;;;;;;;;4997463;28;20041;-81
2022/12/09 06:27:59;;;;;;;68.35;43.92;;;;;;;;;;5014567;28;20022;-81
2022/12/09 06:30:25;;;;;;;72.32;43.92;;;;;;;;;;5014488;28;20048;-80
2022/12/09 06:32:51;;;;;;;66.88;44.83;;;;;;;;;;4996982;28;20088;-80
2022/12/09 06:35:17;;;;;;;70.45;50.83;;;;;;;;;;5012619;28;20022;-80
2022/12/09 06:37:43;;;;;;;91.47;65.20;;;;;;;;;;5013031;28;20034;-82
2022/12/09 06:40:09;;;;;;;116.78;82.68;;;;;;;;;;5015622;28;20461;-82
2022/12/09 06:42:36;;;;;;;70.72;48.15;;;;;;;;;;5013065;28;20038;-80
2022/12/09 06:45:02;;;;;;;69.50;44.95;;;;;;;;;;5014538;28;20107;-83
2022/12/09 06:47:28;;;;;;;94.53;66.00;;;;;;;;;;4996100;28;20041;-82
2022/12/09 06:49:56;;;;;;;76.80;54.90;;;;;;;;;;5013022;28;20440;-82
2022/12/09 06:52:22;;;;;;;82.80;58.55;;;;;;;;;;4994568;28;20018;-83
2022/12/09 06:54:48;;;;;;;89.43;62.22;;;;;;;;;;4994238;28;20504;-82
2022/12/09 06:57:15;;;;;;;107.43;72.70;;;;;;;;;;4994692;28;20027;-83
2022/12/09 06:59:41;;;;;;;114.07;77.28;;;;;;;;;;4994473;28;20105;-80
2022/12/09 07:02:08;;;;;;;132.35;92.35;;;;;;;;;;5011791;28;20030;-81
2022/12/09 07:04:34;;;;;;;118.00;83.40;;;;;;;;;;5013434;28;20058;-83
2022/12/09 07:07:01;;;;;;;180.13;118.18;;;;;;;;;;5011232;28;20022;-81
2022/12/09 07:09:27;;;;;;;236.95;170.52;;;;;;;;;;5014384;28;20030;-82
2022/12/09 07:11:53;;;;;;;125.75;101.60;;;;;;;;;;5009490;28;20025;-82
2022/12/09 07:14:19;;;;;;;107.40;89.57;;;;;;;;;;5008162;28;20029;-83
2022/12/09 07:16:45;;;;;;;96.32;77.35;;;;;;;;;;5033018;28;20047;-81
2022/12/09 07:19:18;;;;;;;101.10;74.20;;;;;;;;;;5020788;28;20437;-83
2022/12/09 07:21:44;;;;;;;108.55;72.43;;;;;;;;;;4985617;28;20476;-82
2022/12/09 07:24:15;;;;;;;129.15;91.03;;;;;;;;;;4993741;28;20478;-81
2022/12/09 07:26:43;;;;;;;136.02;89.70;;;;;;;;;;4997234;28;20049;-82
2022/12/09 07:29:09;;;;;;;144.85;103.85;;;;;;;;;;5033309;28;20108;-81
2022/12/09 07:31:35;;;;;;;114.63;81.43;;;;;;;;;;5032689;28;20380;-80
2022/12/09 07:34:02;;;;;;;88.93;64.93;;;;;;;;;;5015255;28;20061;-80
2022/12/09 07:36:29;;;;;;;85.78;57.63;;;;;;;;;;5032412;28;20049;-80
2022/12/09 07:38:55;;;;;;;70.05;46.63;;;;;;;;;;5013393;28;20469;-84
2022/12/09 07:41:21;;;;;;;69.97;47.47;;;;;;;;;;5013015;28;20141;-81
2022/12/09 07:43:48;;;;;;;83.90;56.13;;;;;;;;;;4995191;28;20033;-84
2022/12/09 07:46:15;;;;;;;88.70;60.72;;;;;;;;;;5012842;28;20041;-81
2022/12/09 07:48:41;;;;;;;94.10;61.85;;;;;;;;;;5012865;28;20021;-81
2022/12/09 07:51:07;;;;;;;78.63;55.47;;;;;;;;;;4993545;28;20026;-81
2022/12/09 07:53:36;;;;;;;76.25;53.47;;;;;;;;;;4993217;28;20022;-82
2022/12/09 07:56:06;;;;;;;73.13;53.63;;;;;;;;;;4993195;28;20026;-81
2022/12/09 07:58:40;;;;;;;73.82;51.95;;;;;;;;;;5003070;28;20025;-82
2022/12/09 08:01:20;;;;;;;65.93;50.22;;;;;;;;;;5010619;28;20045;-83
2022/12/09 08:03:47;;;;;;;62.65;49.28;;;;;;;;;;5012379;28;20141;-80
2022/12/09 08:06:13;;;;;;;140.35;100.20;;;;;;;;;;5012767;28;20022;-82
2022/12/09 08:08:40;;;;;;;178.20;131.13;;;;;;;;;;5012638;28;20105;-84
2022/12/09 08:11:11;;;;;;;149.02;110.68;;;;;;;;;;5004883;28;20033;-82
2022/12/09 08:13:37;;;;;;;138.27;107.20;;;;;;;;;;5011811;28;20049;-81
2022/12/09 08:16:04;;;;;;;133.07;103.90;;;;;;;;;;4996171;28;20026;-81
2022/12/09 08:18:31;;;;;;;124.60;98.63;;;;;;;;;;5012330;28;20029;-83
2022/12/09 08:20:57;;;;;;;125.45;102.50;;;;;;;;;;5012650;28;20029;-82
2022/12/09 08:23:24;;;;;;;156.13;114.97;;;;;;;;;;5012501;28;20372;-83
2022/12/09 08:25:56;;;;;;;184.98;135.07;;;;;;;;;;4993312;28;20447;-81
2022/12/09 08:28:23;;;;;;;252.40;177.38;;;;;;;;;;5002529;28;20477;-83
2022/12/09 08:30:49;;;;;;;237.90;167.27;;;;;;;;;;5022479;28;20040;-81
2022/12/09 08:33:15;;;;;;;194.00;137.82;;;;;;;;;;5012407;28;20030;-79
2022/12/09 08:35:42;;;;;;;181.90;130.15;;;;;;;;;;5018346;28;20026;-79
2022/12/09 08:38:09;;;;;;;150.52;106.65;;;;;;;;;;5023978;28;20031;-82
2022/12/09 08:40:41;;;;;;;144.65;104.97;;;;;;;;;;4986397;28;20033;-82
2022/12/09 08:43:08;;;;;;;164.93;118.20;;;;;;;;;;5014445;28;20052;-80
2022/12/09 08:45:38;;;;;;;175.60;119.25;;;;;;;;;;5032219;28;20112;-80
2022/12/09 08:48:04;;;;;;;156.45;112.82;;;;;;;;;;5009111;28;20030;-80
2022/12/09 08:50:30;;;;;;;106.07;75.60;;;;;;;;;;5024659;28;20480;-82
2022/12/09 08:52:57;;;;;;;96.65;72.95;;;;;;;;;;5015954;28;20030;-81
2022/12/09 08:55:23;;;;;;;84.38;63.50;;;;;;;;;;5002049;28;20442;-81
2022/12/09 08:57:49;;;;;;;94.43;63.80;;;;;;;;;;5020321;28;20514;-82
2022/12/09 09:00:15;;;;;;;72.35;52.17;;;;;;;;;;5029257;28;20068;-82
2022/12/09 09:02:41;;;;;;;67.43;45.53;;;;;;;;;;5018383;28;20032;-83
2022/12/09 09:05:08;;;;;;;58.50;35.35;;;;;;;;;;5035905;28;20034;-84
2022/12/09 09:07:34;;;;;;;62.33;45.17;;;;;;;;;;5036296;28;20104;-83
2022/12/09 09:10:04;;;;;;;55.08;39.22;;;;;;;;;;5019239;28;20092;-83
2022/12/09 09:12:30;;;;;;;58.97;36.72;;;;;;;;;;5035572;28;20036;-83
2022/12/09 09:14:56;;;;;;;50.58;35.58;;;;;;;;;;5018268;28;20026;-82
2022/12/09 09:17:22;;;;;;;42.50;28.38;;;;;;;;;;5024097;28;20393;-85
2022/12/09 09:19:49;;;;;;;42.55;26.88;;;;;;;;;;4997238;28;20124;-80
2022/12/09 09:22:15;;;;;;;55.65;36.35;;;;;;;;;;5015662;28;20026;-79
2022/12/09 09:24:41;;;;;;;52.65;35.95;;;;;;;;;;5015666;28;20456;-82
2022/12/09 09:27:07;;;;;;;47.65;32.70;;;;;;;;;;5015336;28;20021;-82
2022/12/09 09:29:33;;;;;;;53.40;34.50;;;;;;;;;;5010896;28;20025;-81
2022/12/09 09:31:59;;;;;;;51.15;36.30;;;;;;;;;;5001760;28;20057;-82
2022/12/09 09:34:26;;;;;;;63.33;45.05;;;;;;;;;;5010767;28;20064;-80
2022/12/09 09:36:53;;;;;;;52.60;34.72;;;;;;;;;;5017408;28;20025;-82
2022/12/09 09:39:20;;;;;;;42.95;26.27;;;;;;;;;;5034714;28;20524;-81
2022/12/09 09:42:07;;;;;;;32.95;21.55;;;;;;;;;;4998123;28;20029;-83
2022/12/09 09:44:37;;;;;;;31.15;20.92;;;;;;;;;;4997325;28;20485;-83
2022/12/09 09:47:21;;;;;;;26.92;18.90;;;;;;;;;;5000688;28;20036;-84
2022/12/09 09:49:47;;;;;;;;;;;;;;;;;;4998139;28;20397;-82
2022/12/09 09:52:16;;;;;;;32.08;16.95;;;;;;;;;;4998008;28;19906;-83
2022/12/09 09:54:48;;;;;;;31.15;19.40;;;;;;;;;;5015149;28;20022;-84
2022/12/09 09:57:16;;;;;;;47.97;32.22;;;;;;;;;;5021838;28;20026;-82
2022/12/09 10:00:01;;;;;;;44.13;31.15;;;;;;;;;;5022095;28;20029;-83
2022/12/09 10:02:48;;;;;;;42.60;27.50;;;;;;;;;;5018112;28;20508;-80
2022/12/09 10:05:24;;;;;;;41.25;32.15;;;;;;;;;;4993111;28;20037;-80
2022/12/09 10:08:10;;;;;;;37.00;29.70;;;;;;;;;;5003439;28;20028;-84
2022/12/09 10:11:02;;;;;;;30.98;23.23;;;;;;;;;;5003007;28;20030;-87
2022/12/09 10:13:39;;;;;;;28.20;20.27;;;;;;;;;;4980146;28;20037;-82
2022/12/09 10:16:22;;;;;;;24.58;17.80;;;;;;;;;;4993274;28;20481;-82
2022/12/09 10:18:54;;;;;;;28.42;17.70;;;;;;;;;;4994807;28;20030;-83
2022/12/09 10:21:20;;;;;;;31.65;19.10;;;;;;;;;;4995033;28;20050;-82
2022/12/09 10:23:47;;;;;;;39.47;29.83;;;;;;;;;;4994214;28;20034;-83
2022/12/09 10:26:19;;;;;;;33.53;23.48;;;;;;;;;;4993079;28;20031;-84
2022/12/09 10:28:46;;;;;;;26.45;20.17;;;;;;;;;;4992036;28;20041;-84
2022/12/09 10:31:12;;;;;;;22.30;17.40;;;;;;;;;;4995040;28;20034;-85
2022/12/09 10:33:40;;;;;;;22.55;16.75;;;;;;;;;;4994168;28;20034;-84
2022/12/09 10:36:07;;;;;;;57.58;38.80;;;;;;;;;;4994855;28;20089;-84
2022/12/09 10:38:37;;;;;;;50.75;33.95;;;;;;;;;;4990512;28;20030;-84
2022/12/09 10:43:33;;;;;;;27.60;19.35;;;;;;;;;;4995175;28;20045;-84
2022/12/09 10:44:18;;;;;;;29.02;20.23;;;;;;;;;;4995056;28;20561;-86
2022/12/09 10:46:45;;;;;;;27.80;20.95;;;;;;;;;;4994133;28;20113;-86
2022/12/09 10:49:18;;;;;;;61.55;45.22;;;;;;;;;;4981965;28;20497;-82
2022/12/09 10:51:48;;;;;;;45.55;33.35;;;;;;;;;;5008121;28;20711;-85
2022/12/09 10:54:19;;;;;;;68.63;50.45;;;;;;;;;;4976738;28;20018;-86
2022/12/09 10:57:04;;;;;;;30.70;24.85;;;;;;;;;;4970986;28;20389;-85
2022/12/09 10:59:31;;;;;;;26.35;17.42;;;;;;;;;;4994214;28;20030;-84
2022/12/09 11:01:58;;;;;;;25.30;18.45;;;;;;;;;;4994407;28;20088;-85
2022/12/09 11:04:24;;;;;;;22.25;14.82;;;;;;;;;;4993021;28;20061;-83
2022/12/09 11:06:51;;;;;;;29.25;13.35;;;;;;;;;;5013812;28;20351;-85
2022/12/09 11:09:35;;;;;;;18.67;10.95;;;;;;;;;;4994410;28;20033;-83
2022/12/09 11:12:03;;;;;;;17.30;12.20;;;;;;;;;;5030951;28;20500;-86
2022/12/09 11:14:38;;;;;;;18.50;12.98;;;;;;;;;;5015822;28;20500;-84
2022/12/09 11:17:19;;;;;;;25.10;13.35;;;;;;;;;;5015635;28;20408;-87
2022/12/09 11:19:49;;;;;;;21.08;14.38;;;;;;;;;;5019339;28;20037;-83
2022/12/09 11:22:40;;;;;;;19.17;11.73;;;;;;;;;;5013566;28;20032;-84
2022/12/09 11:25:25;;;;;;;16.30;10.93;;;;;;;;;;5004625;28;20053;-83
2022/12/09 11:27:56;;;;;;;17.58;12.23;;;;;;;;;;5011545;28;20739;-83
2022/12/09 11:30:27;;;;;;;14.95;10.38;;;;;;;;;;5013497;28;20061;-84
2022/12/09 11:33:02;;;;;;;14.77;9.77;;;;;;;;;;5012550;28;20033;-84
2022/12/09 11:35:30;;;;;;;;;;;;;;;;;;4992924;28;20438;-84
2022/12/09 11:37:58;;;;;;;17.95;12.00;;;;;;;;;;5007087;28;19913;-84
2022/12/09 11:40:31;;;;;;;14.80;10.35;;;;;;;;;;5021716;28;20029;-85
2022/12/09 11:42:57;;;;;;;20.15;11.73;;;;;;;;;;5017933;28;20057;-82
2022/12/09 11:45:26;;;;;;;17.63;11.35;;;;;;;;;;4995402;28;20472;-82
2022/12/09 11:48:01;;;;;;;15.85;11.18;;;;;;;;;;5011581;28;20036;-83
2022/12/09 11:50:30;;;;;;;15.82;11.45;;;;;;;;;;5018330;28;20025;-84
2022/12/09 11:53:05;;;;;;;18.75;11.38;;;;;;;;;;4987229;28;20035;-85
2022/12/09 11:55:32;;;;;;;17.25;10.65;;;;;;;;;;4995158;28;20029;-85
2022/12/09 11:58:01;;;;;;;17.30;10.43;;;;;;;;;;5018244;28;20025;-82
2022/12/09 12:01:03;;;;;;;23.90;11.10;;;;;;;;;;5111069;27;20433;-82
2022/12/09 12:03:34;;;;;;;16.65;10.82;;;;;;;;;;5110122;28;20035;-82
2022/12/09 12:06:02;;;;;;;19.38;12.13;;;;;;;;;;5109355;28;20032;-82
2022/12/09 12:08:28;;;;;;;18.08;13.38;;;;;;;;;;5108843;28;20016;-82
2022/12/09 12:10:57;;;;;;;20.55;14.23;;;;;;;;;;5108949;28;20027;-81
2022/12/09 12:13:27;;;;;;;35.55;25.77;;;;;;;;;;5109126;28;20032;-83
2022/12/09 12:16:06;;;;;;;72.88;57.35;;;;;;;;;;5107702;28;20486;-84
2022/12/09 12:18:43;;;;;;;119.70;93.15;;;;;;;;;;5109697;28;20433;-82
2022/12/09 12:21:12;;;;;;;31.23;20.95;;;;;;;;;;5100247;28;20055;-83
2022/12/09 12:24:05;;;;;;;19.40;12.95;;;;;;;;;;5096237;28;20062;-81
2022/12/09 12:26:38;;;;;;;30.15;16.90;;;;;;;;;;5085199;28;20502;-84
2022/12/09 12:29:23;;;;;;;23.52;14.25;;;;;;;;;;5109229;28;20031;-84
2022/12/09 12:32:09;;;;;;;21.00;15.48;;;;;;;;;;5109460;28;20479;-82
2022/12/09 12:34:44;;;;;;;26.75;19.45;;;;;;;;;;5107961;28;20513;-82
2022/12/09 12:37:35;;;;;;;20.85;14.75;;;;;;;;;;5100675;28;20410;-84
2022/12/09 12:40:19;;;;;;;26.73;17.48;;;;;;;;;;5103625;28;20039;-84
2022/12/09 12:48:44;;;;;;;23.98;14.23;;;;;;;;;;5098834;28;20066;-84
2022/12/09 12:51:29;;;;;;;17.23;12.20;;;;;;;;;;5104613;28;20081;-80
2022/12/09 12:54:18;;;;;;;14.70;10.40;;;;;;;;;;5101180;28;20154;-79
2022/12/09 12:56:59;;;;;;;15.68;11.18;;;;;;;;;;5085824;28;20040;-81
2022/12/09 12:59:44;;;;;;;14.35;9.45;;;;;;;;;;5105039;28;20062;-84
2022/12/09 13:02:10;;;;;;;12.13;8.85;;;;;;;;;;5100726;28;20034;-82
2022/12/09 13:04:42;;;;;;;15.43;10.32;;;;;;;;;;5106914;28;20036;-80
2022/12/09 13:07:27;;;;;;;16.52;11.48;;;;;;;;;;5106081;28;20043;-82
2022/12/09 13:10:07;;;;;;;10.70;8.68;;;;;;;;;;5106085;28;20035;-80
2022/12/09 13:12:54;;;;;;;13.45;8.60;;;;;;;;;;5094863;28;20020;-79
2022/12/09 13:15:33;;;;;;;14.75;8.13;;;;;;;;;;5092542;28;20031;-80
2022/12/09 13:18:20;;;;;;;13.60;8.88;;;;;;;;;;5086429;28;20028;-81
2022/12/09 13:20:48;;;;;;;16.02;10.43;;;;;;;;;;5091751;28;20093;-85
2022/12/09 13:23:33;;;;;;;14.02;9.63;;;;;;;;;;5094771;28;20608;-82
2022/12/09 13:26:17;;;;;;;16.40;10.20;;;;;;;;;;5085308;28;20051;-82
2022/12/09 13:28:50;;;;;;;16.65;12.18;;;;;;;;;;5085148;28;20021;-81
2022/12/09 13:31:18;;;;;;;17.90;11.75;;;;;;;;;;5089734;28;20151;-80
2022/12/09 13:33:47;;;;;;;22.52;15.00;;;;;;;;;;5092455;28;20060;-81
2022/12/09 13:36:34;;;;;;;18.10;11.23;;;;;;;;;;5085108;28;20024;-83
2022/12/09 13:39:00;;;;;;;19.33;12.85;;;;;;;;;;5082156;28;20063;-82
2022/12/09 13:41:27;;;;;;;15.77;9.18;;;;;;;;;;5086934;28;20111;-81
2022/12/09 13:43:53;;;;;;;17.48;11.82;;;;;;;;;;5087635;28;20075;-79
2022/12/09 13:46:23;;;;;;;14.45;9.93;;;;;;;;;;5090420;28;20028;-81
2022/12/09 13:48:49;;;;;;;17.90;11.43;;;;;;;;;;5092808;28;20106;-79
2022/12/09 13:51:16;;;;;;;16.08;9.98;;;;;;;;;;5091290;28;20024;-85
2022/12/09 13:53:50;;;;;;;13.32;8.77;;;;;;;;;;5093142;28;20037;-83
2022/12/09 13:56:16;;;;;;;20.65;12.00;;;;;;;;;;5091127;28;20020;-84
2022/12/09 13:58:43;;;;;;;17.58;8.98;;;;;;;;;;5092713;28;20128;-83
2022/12/09 14:01:15;;;;;;;16.63;9.30;;;;;;;;;;5089338;28;20382;-83
2022/12/09 14:03:59;;;;;;;16.50;8.65;;;;;;;;;;5094127;28;20031;-81
2022/12/09 14:06:44;;;;;;;16.02;9.60;;;;;;;;;;5090239;28;20077;-83
2022/12/09 14:09:19;;;;;;;13.15;8.98;;;;;;;;;;5091595;28;20099;-82
2022/12/09 14:11:49;;;;;;;16.65;8.73;;;;;;;;;;5090501;28;20035;-81
2022/12/09 14:14:25;;;;;;;14.35;9.40;;;;;;;;;;5098823;28;20028;-82
2022/12/09 14:16:52;;;;;;;19.73;14.55;;;;;;;;;;5095921;28;20482;-82
2022/12/09 14:19:24;;;;;;;22.75;16.65;;;;;;;;;;5085660;28;20040;-84
2022/12/09 14:22:14;;;;;;;17.25;12.35;;;;;;;;;;5093092;28;20082;-84
2022/12/09 14:24:41;;;;;;;18.83;10.20;;;;;;;;;;5091443;28;20463;-83
2022/12/09 14:27:11;;;;;;;17.92;9.23;;;;;;;;;;5092912;28;20368;-84
2022/12/09 14:29:55;;;;;;;14.35;9.40;;;;;;;;;;5093794;28;20024;-84
2022/12/09 14:32:21;;;;;;;15.70;9.05;;;;;;;;;;5093738;28;20024;-82
2022/12/09 14:34:59;;;;;;;24.70;13.63;;;;;;;;;;5091032;28;20521;-84
2022/12/09 14:37:46;;;;;;;22.00;12.50;;;;;;;;;;5089270;28;20502;-84